Groton, Connecticut
Current Conditions -  °F | °C
As of 11:56 AM on Saturday 25 Oct 2014 (Local Time) from KGON Reporting Station
Clear Clear  
Wind Chill: 16°   Ceiling: Unl
Heat Index: 16°   Visibility: 10mi
Dew Point:   Wind: 9mph
Humidity: 48%   Direction: 250°WSW
Pressure: 29.75"   Gusts: NA
Location:  41.35°N, 72.07°W
Report Text: KGON 251556Z 25008KT 10SM CLR 16/05 A2975 RMK AO2 SLP075 T01610050
Loading
Personal Weather Stations






























Interactive Weather Map
Tropical Storm Tracking
New forecast layout! Learn more

10-Day Weather Forecast

Advertisements
Track Severe Weather on mobile